sensor_id;sensor_type;location;lat;lon;timestamp;P1;durP1;ratioP1;P2;durP2;ratioP2
31618;SDS011;18230;51.502;7.108;2024-01-30T00:03:47;14.00;;;6.40;;
31618;SDS011;18230;51.502;7.108;2024-01-30T00:08:48;12.05;;;6.15;;
31618;SDS011;18230;51.502;7.108;2024-01-30T00:13:49;16.45;;;6.55;;
31618;SDS011;18230;51.502;7.108;2024-01-30T00:18:50;10.55;;;6.32;;
31618;SDS011;18230;51.502;7.108;2024-01-30T00:23:51;14.73;;;6.85;;
31618;SDS011;18230;51.502;7.108;2024-01-30T00:28:52;13.23;;;6.80;;
31618;SDS011;18230;51.502;7.108;2024-01-30T00:33:52;13.38;;;6.93;;
31618;SDS011;18230;51.502;7.108;2024-01-30T00:38:53;13.00;;;6.18;;
31618;SDS011;18230;51.502;7.108;2024-01-30T00:43:53;12.50;;;6.65;;
31618;SDS011;18230;51.502;7.108;2024-01-30T00:48:54;13.93;;;7.00;;
31618;SDS011;18230;51.502;7.108;2024-01-30T00:53:55;12.32;;;7.15;;
31618;SDS011;18230;51.502;7.108;2024-01-30T00:58:55;13.10;;;6.80;;
31618;SDS011;18230;51.502;7.108;2024-01-30T01:03:56;11.93;;;7.00;;
31618;SDS011;18230;51.502;7.108;2024-01-30T01:08:58;14.25;;;7.32;;
31618;SDS011;18230;51.502;7.108;2024-01-30T01:13:58;11.60;;;7.50;;
31618;SDS011;18230;51.502;7.108;2024-01-30T01:18:59;14.10;;;7.38;;
31618;SDS011;18230;51.502;7.108;2024-01-30T01:24:00;13.13;;;6.60;;
31618;SDS011;18230;51.502;7.108;2024-01-30T01:29:00;15.40;;;7.88;;
31618;SDS011;18230;51.502;7.108;2024-01-30T01:34:01;10.65;;;6.60;;
31618;SDS011;18230;51.502;7.108;2024-01-30T01:39:02;16.08;;;7.43;;
31618;SDS011;18230;51.502;7.108;2024-01-30T01:44:03;12.30;;;7.05;;
31618;SDS011;18230;51.502;7.108;2024-01-30T01:49:04;17.55;;;8.82;;
31618;SDS011;18230;51.502;7.108;2024-01-30T01:54:05;15.90;;;7.60;;
31618;SDS011;18230;51.502;7.108;2024-01-30T01:59:07;10.90;;;6.85;;
31618;SDS011;18230;51.502;7.108;2024-01-30T02:04:08;12.07;;;6.45;;
31618;SDS011;18230;51.502;7.108;2024-01-30T02:09:09;14.35;;;7.68;;
31618;SDS011;18230;51.502;7.108;2024-01-30T02:14:09;13.38;;;7.20;;
31618;SDS011;18230;51.502;7.108;2024-01-30T02:19:10;14.68;;;7.30;;
31618;SDS011;18230;51.502;7.108;2024-01-30T02:24:11;18.30;;;7.13;;
31618;SDS011;18230;51.502;7.108;2024-01-30T02:29:12;17.02;;;7.72;;
31618;SDS011;18230;51.502;7.108;2024-01-30T02:34:13;18.27;;;7.80;;
31618;SDS011;18230;51.502;7.108;2024-01-30T02:39:13;12.13;;;7.25;;
31618;SDS011;18230;51.502;7.108;2024-01-30T02:44:14;16.60;;;7.35;;
31618;SDS011;18230;51.502;7.108;2024-01-30T02:49:15;15.40;;;7.85;;
31618;SDS011;18230;51.502;7.108;2024-01-30T02:54:16;13.27;;;7.72;;
31618;SDS011;18230;51.502;7.108;2024-01-30T02:59:17;14.77;;;7.60;;
31618;SDS011;18230;51.502;7.108;2024-01-30T03:04:17;12.10;;;7.28;;
31618;SDS011;18230;51.502;7.108;2024-01-30T03:09:18;12.50;;;7.28;;
31618;SDS011;18230;51.502;7.108;2024-01-30T03:14:18;14.80;;;6.82;;
31618;SDS011;18230;51.502;7.108;2024-01-30T03:19:19;11.55;;;6.82;;
31618;SDS011;18230;51.502;7.108;2024-01-30T03:24:20;12.80;;;7.00;;
31618;SDS011;18230;51.502;7.108;2024-01-30T03:29:20;14.93;;;7.45;;
31618;SDS011;18230;51.502;7.108;2024-01-30T03:34:21;10.95;;;6.90;;
31618;SDS011;18230;51.502;7.108;2024-01-30T03:39:21;11.88;;;7.47;;
31618;SDS011;18230;51.502;7.108;2024-01-30T03:44:22;10.60;;;6.57;;
31618;SDS011;18230;51.502;7.108;2024-01-30T03:49:23;12.15;;;6.97;;
31618;SDS011;18230;51.502;7.108;2024-01-30T03:54:24;11.95;;;7.32;;
31618;SDS011;18230;51.502;7.108;2024-01-30T03:59:24;14.43;;;7.38;;
31618;SDS011;18230;51.502;7.108;2024-01-30T04:04:25;15.38;;;6.70;;
31618;SDS011;18230;51.502;7.108;2024-01-30T04:09:25;15.27;;;6.95;;
31618;SDS011;18230;51.502;7.108;2024-01-30T04:14:28;16.60;;;8.00;;
31618;SDS011;18230;51.502;7.108;2024-01-30T04:19:29;11.43;;;6.35;;
31618;SDS011;18230;51.502;7.108;2024-01-30T04:24:29;15.52;;;6.97;;
31618;SDS011;18230;51.502;7.108;2024-01-30T04:29:30;11.80;;;6.95;;
31618;SDS011;18230;51.502;7.108;2024-01-30T04:34:32;12.65;;;6.43;;
31618;SDS011;18230;51.502;7.108;2024-01-30T04:39:33;16.63;;;6.22;;
31618;SDS011;18230;51.502;7.108;2024-01-30T04:44:34;13.65;;;7.03;;
31618;SDS011;18230;51.502;7.108;2024-01-30T04:49:34;16.35;;;6.75;;
31618;SDS011;18230;51.502;7.108;2024-01-30T04:54:35;8.30;;;5.55;;
31618;SDS011;18230;51.502;7.108;2024-01-30T04:59:36;13.25;;;6.18;;
31618;SDS011;18230;51.502;7.108;2024-01-30T05:04:36;14.35;;;6.80;;
31618;SDS011;18230;51.502;7.108;2024-01-30T05:09:37;10.30;;;5.78;;
31618;SDS011;18230;51.502;7.108;2024-01-30T05:14:37;12.63;;;6.13;;
31618;SDS011;18230;51.502;7.108;2024-01-30T05:19:38;9.95;;;6.10;;
31618;SDS011;18230;51.502;7.108;2024-01-30T05:24:39;11.48;;;6.10;;
31618;SDS011;18230;51.502;7.108;2024-01-30T05:29:40;12.30;;;5.72;;
31618;SDS011;18230;51.502;7.108;2024-01-30T05:34:43;10.52;;;5.43;;
31618;SDS011;18230;51.502;7.108;2024-01-30T05:39:44;10.57;;;5.53;;
31618;SDS011;18230;51.502;7.108;2024-01-30T05:44:44;17.13;;;5.68;;
31618;SDS011;18230;51.502;7.108;2024-01-30T05:49:45;16.58;;;5.65;;
31618;SDS011;18230;51.502;7.108;2024-01-30T05:54:45;7.75;;;5.22;;
31618;SDS011;18230;51.502;7.108;2024-01-30T05:59:46;9.77;;;5.38;;
31618;SDS011;18230;51.502;7.108;2024-01-30T06:04:47;11.85;;;5.82;;
31618;SDS011;18230;51.502;7.108;2024-01-30T06:09:48;12.85;;;6.57;;
31618;SDS011;18230;51.502;7.108;2024-01-30T06:14:49;8.90;;;5.80;;
31618;SDS011;18230;51.502;7.108;2024-01-30T06:19:49;13.43;;;6.18;;
31618;SDS011;18230;51.502;7.108;2024-01-30T06:24:50;7.88;;;5.30;;
31618;SDS011;18230;51.502;7.108;2024-01-30T06:29:51;11.20;;;5.45;;
31618;SDS011;18230;51.502;7.108;2024-01-30T06:34:51;12.25;;;5.03;;
31618;SDS011;18230;51.502;7.108;2024-01-30T06:39:52;10.48;;;5.32;;
31618;SDS011;18230;51.502;7.108;2024-01-30T06:44:53;14.85;;;6.03;;
31618;SDS011;18230;51.502;7.108;2024-01-30T06:49:53;12.00;;;6.07;;
31618;SDS011;18230;51.502;7.108;2024-01-30T06:54:54;10.80;;;5.30;;
31618;SDS011;18230;51.502;7.108;2024-01-30T06:59:54;11.75;;;5.63;;
31618;SDS011;18230;51.502;7.108;2024-01-30T07:04:55;9.48;;;5.30;;
31618;SDS011;18230;51.502;7.108;2024-01-30T07:09:56;15.00;;;6.18;;
31618;SDS011;18230;51.502;7.108;2024-01-30T07:14:56;12.10;;;5.50;;
31618;SDS011;18230;51.502;7.108;2024-01-30T07:19:59;13.57;;;5.68;;
31618;SDS011;18230;51.502;7.108;2024-01-30T07:25:00;18.08;;;7.55;;
31618;SDS011;18230;51.502;7.108;2024-01-30T07:30:00;12.68;;;5.78;;
31618;SDS011;18230;51.502;7.108;2024-01-30T07:35:01;12.60;;;6.07;;
31618;SDS011;18230;51.502;7.108;2024-01-30T07:40:02;10.90;;;5.45;;
31618;SDS011;18230;51.502;7.108;2024-01-30T07:45:03;10.20;;;5.90;;
31618;SDS011;18230;51.502;7.108;2024-01-30T07:50:04;13.32;;;6.00;;
31618;SDS011;18230;51.502;7.108;2024-01-30T07:55:06;12.90;;;6.03;;
31618;SDS011;18230;51.502;7.108;2024-01-30T08:00:08;11.55;;;6.07;;
31618;SDS011;18230;51.502;7.108;2024-01-30T08:05:09;13.88;;;6.13;;
31618;SDS011;18230;51.502;7.108;2024-01-30T08:10:11;11.68;;;5.45;;
31618;SDS011;18230;51.502;7.108;2024-01-30T08:15:13;12.23;;;6.15;;
31618;SDS011;18230;51.502;7.108;2024-01-30T08:20:14;13.23;;;6.03;;
31618;SDS011;18230;51.502;7.108;2024-01-30T08:25:14;11.00;;;6.25;;
31618;SDS011;18230;51.502;7.108;2024-01-30T08:30:15;9.98;;;6.60;;
31618;SDS011;18230;51.502;7.108;2024-01-30T08:35:16;14.25;;;5.82;;
31618;SDS011;18230;51.502;7.108;2024-01-30T08:40:17;13.48;;;5.80;;
31618;SDS011;18230;51.502;7.108;2024-01-30T08:45:17;13.60;;;6.18;;
31618;SDS011;18230;51.502;7.108;2024-01-30T08:50:19;10.18;;;5.35;;
31618;SDS011;18230;51.502;7.108;2024-01-30T08:55:19;12.23;;;6.28;;
31618;SDS011;18230;51.502;7.108;2024-01-30T09:00:20;20.52;;;5.78;;
31618;SDS011;18230;51.502;7.108;2024-01-30T09:05:20;17.48;;;8.57;;
31618;SDS011;18230;51.502;7.108;2024-01-30T09:10:21;11.23;;;5.93;;
31618;SDS011;18230;51.502;7.108;2024-01-30T09:15:22;34.55;;;8.85;;
31618;SDS011;18230;51.502;7.108;2024-01-30T09:20:22;16.73;;;6.82;;
31618;SDS011;18230;51.502;7.108;2024-01-30T09:25:23;12.95;;;6.68;;
31618;SDS011;18230;51.502;7.108;2024-01-30T09:30:24;19.20;;;5.95;;
31618;SDS011;18230;51.502;7.108;2024-01-30T09:35:25;10.05;;;5.40;;
31618;SDS011;18230;51.502;7.108;2024-01-30T09:40:25;16.05;;;5.93;;
31618;SDS011;18230;51.502;7.108;2024-01-30T09:45:26;11.82;;;5.38;;
31618;SDS011;18230;51.502;7.108;2024-01-30T09:50:27;11.38;;;5.65;;
31618;SDS011;18230;51.502;7.108;2024-01-30T09:55:28;9.25;;;5.30;;
31618;SDS011;18230;51.502;7.108;2024-01-30T10:00:28;8.43;;;5.35;;
31618;SDS011;18230;51.502;7.108;2024-01-30T10:05:29;9.93;;;5.13;;
31618;SDS011;18230;51.502;7.108;2024-01-30T10:10:34;14.40;;;7.22;;
31618;SDS011;18230;51.502;7.108;2024-01-30T10:15:36;13.85;;;5.82;;
31618;SDS011;18230;51.502;7.108;2024-01-30T10:20:38;12.45;;;5.47;;
31618;SDS011;18230;51.502;7.108;2024-01-30T10:25:39;14.98;;;5.57;;
31618;SDS011;18230;51.502;7.108;2024-01-30T10:30:40;11.23;;;5.88;;
31618;SDS011;18230;51.502;7.108;2024-01-30T10:35:41;10.77;;;5.28;;
31618;SDS011;18230;51.502;7.108;2024-01-30T10:40:41;13.07;;;5.85;;
31618;SDS011;18230;51.502;7.108;2024-01-30T10:45:43;17.73;;;6.30;;
31618;SDS011;18230;51.502;7.108;2024-01-30T10:50:49;18.63;;;5.63;;
31618;SDS011;18230;51.502;7.108;2024-01-30T10:55:51;15.85;;;5.68;;
31618;SDS011;18230;51.502;7.108;2024-01-30T11:00:54;14.27;;;5.70;;
31618;SDS011;18230;51.502;7.108;2024-01-30T11:05:58;8.85;;;5.32;;
31618;SDS011;18230;51.502;7.108;2024-01-30T11:11:00;14.02;;;5.78;;
31618;SDS011;18230;51.502;7.108;2024-01-30T11:16:01;13.57;;;5.95;;
31618;SDS011;18230;51.502;7.108;2024-01-30T11:21:04;20.42;;;6.32;;
31618;SDS011;18230;51.502;7.108;2024-01-30T11:26:05;15.63;;;6.45;;
31618;SDS011;18230;51.502;7.108;2024-01-30T11:31:06;15.63;;;6.40;;
31618;SDS011;18230;51.502;7.108;2024-01-30T11:36:07;13.27;;;5.95;;
31618;SDS011;18230;51.502;7.108;2024-01-30T11:41:08;16.42;;;6.18;;
31618;SDS011;18230;51.502;7.108;2024-01-30T11:46:09;13.35;;;5.97;;
31618;SDS011;18230;51.502;7.108;2024-01-30T11:51:11;19.95;;;6.45;;
31618;SDS011;18230;51.502;7.108;2024-01-30T11:56:13;17.10;;;8.48;;
31618;SDS011;18230;51.502;7.108;2024-01-30T12:01:16;17.05;;;6.70;;
31618;SDS011;18230;51.502;7.108;2024-01-30T12:06:17;15.35;;;6.50;;
31618;SDS011;18230;51.502;7.108;2024-01-30T12:11:28;17.67;;;7.25;;
31618;SDS011;18230;51.502;7.108;2024-01-30T12:16:30;14.85;;;7.10;;
31618;SDS011;18230;51.502;7.108;2024-01-30T12:21:31;15.23;;;6.80;;
31618;SDS011;18230;51.502;7.108;2024-01-30T12:26:31;13.63;;;6.45;;
31618;SDS011;18230;51.502;7.108;2024-01-30T12:31:32;19.58;;;7.30;;
31618;SDS011;18230;51.502;7.108;2024-01-30T12:36:33;15.00;;;6.47;;
31618;SDS011;18230;51.502;7.108;2024-01-30T12:41:34;13.52;;;7.05;;
31618;SDS011;18230;51.502;7.108;2024-01-30T12:46:35;17.20;;;8.10;;
31618;SDS011;18230;51.502;7.108;2024-01-30T12:51:37;17.63;;;7.30;;
31618;SDS011;18230;51.502;7.108;2024-01-30T12:56:38;19.08;;;7.25;;
31618;SDS011;18230;51.502;7.108;2024-01-30T13:01:38;16.95;;;7.45;;
31618;SDS011;18230;51.502;7.108;2024-01-30T13:06:39;15.98;;;6.57;;
31618;SDS011;18230;51.502;7.108;2024-01-30T13:11:40;20.95;;;8.00;;
31618;SDS011;18230;51.502;7.108;2024-01-30T13:16:40;21.48;;;7.43;;
31618;SDS011;18230;51.502;7.108;2024-01-30T13:21:41;17.73;;;6.90;;
31618;SDS011;18230;51.502;7.108;2024-01-30T13:26:42;24.25;;;7.75;;
31618;SDS011;18230;51.502;7.108;2024-01-30T13:31:43;21.63;;;8.55;;
31618;SDS011;18230;51.502;7.108;2024-01-30T13:36:46;21.08;;;8.02;;
31618;SDS011;18230;51.502;7.108;2024-01-30T13:41:49;18.48;;;7.47;;
31618;SDS011;18230;51.502;7.108;2024-01-30T13:46:49;22.30;;;8.40;;
31618;SDS011;18230;51.502;7.108;2024-01-30T13:51:50;16.17;;;6.80;;
31618;SDS011;18230;51.502;7.108;2024-01-30T13:56:51;17.77;;;8.18;;
31618;SDS011;18230;51.502;7.108;2024-01-30T14:01:52;17.95;;;8.18;;
31618;SDS011;18230;51.502;7.108;2024-01-30T14:06:52;18.63;;;8.30;;
31618;SDS011;18230;51.502;7.108;2024-01-30T14:11:53;23.90;;;8.80;;
31618;SDS011;18230;51.502;7.108;2024-01-30T14:16:55;18.95;;;7.63;;
31618;SDS011;18230;51.502;7.108;2024-01-30T14:21:56;22.25;;;8.38;;
31618;SDS011;18230;51.502;7.108;2024-01-30T14:26:57;19.95;;;8.63;;
31618;SDS011;18230;51.502;7.108;2024-01-30T14:31:59;19.10;;;8.13;;
31618;SDS011;18230;51.502;7.108;2024-01-30T14:37:00;22.70;;;8.85;;
31618;SDS011;18230;51.502;7.108;2024-01-30T14:42:00;19.30;;;7.68;;
31618;SDS011;18230;51.502;7.108;2024-01-30T14:47:01;14.48;;;7.65;;
31618;SDS011;18230;51.502;7.108;2024-01-30T14:52:02;17.58;;;7.75;;
31618;SDS011;18230;51.502;7.108;2024-01-30T14:57:04;18.38;;;8.55;;
31618;SDS011;18230;51.502;7.108;2024-01-30T15:02:08;17.75;;;8.63;;
31618;SDS011;18230;51.502;7.108;2024-01-30T15:07:09;17.88;;;9.18;;
31618;SDS011;18230;51.502;7.108;2024-01-30T15:12:09;20.50;;;7.90;;
31618;SDS011;18230;51.502;7.108;2024-01-30T15:17:10;16.55;;;7.35;;
31618;SDS011;18230;51.502;7.108;2024-01-30T15:22:11;14.43;;;6.80;;
31618;SDS011;18230;51.502;7.108;2024-01-30T15:27:11;13.70;;;5.65;;
31618;SDS011;18230;51.502;7.108;2024-01-30T15:32:12;18.95;;;5.80;;
31618;SDS011;18230;51.502;7.108;2024-01-30T15:37:13;17.05;;;5.57;;
31618;SDS011;18230;51.502;7.108;2024-01-30T15:42:17;11.60;;;4.65;;
31618;SDS011;18230;51.502;7.108;2024-01-30T15:47:18;10.88;;;4.20;;
31618;SDS011;18230;51.502;7.108;2024-01-30T15:52:18;14.82;;;4.07;;
31618;SDS011;18230;51.502;7.108;2024-01-30T15:57:19;8.57;;;2.80;;
31618;SDS011;18230;51.502;7.108;2024-01-30T16:02:19;9.75;;;2.55;;
31618;SDS011;18230;51.502;7.108;2024-01-30T16:07:20;11.85;;;2.28;;
31618;SDS011;18230;51.502;7.108;2024-01-30T16:12:21;11.77;;;2.22;;
31618;SDS011;18230;51.502;7.108;2024-01-30T16:17:22;5.60;;;1.70;;
31618;SDS011;18230;51.502;7.108;2024-01-30T16:22:22;8.70;;;1.85;;
31618;SDS011;18230;51.502;7.108;2024-01-30T16:27:26;3.88;;;1.27;;
31618;SDS011;18230;51.502;7.108;2024-01-30T16:32:27;7.63;;;2.05;;
31618;SDS011;18230;51.502;7.108;2024-01-30T16:37:31;5.72;;;1.75;;
31618;SDS011;18230;51.502;7.108;2024-01-30T16:42:31;6.57;;;1.50;;
31618;SDS011;18230;51.502;7.108;2024-01-30T16:47:32;5.00;;;1.80;;
31618;SDS011;18230;51.502;7.108;2024-01-30T16:52:33;9.10;;;1.92;;
31618;SDS011;18230;51.502;7.108;2024-01-30T16:57:33;6.65;;;2.00;;
31618;SDS011;18230;51.502;7.108;2024-01-30T17:02:34;5.22;;;1.60;;
31618;SDS011;18230;51.502;7.108;2024-01-30T17:07:35;3.55;;;1.60;;
31618;SDS011;18230;51.502;7.108;2024-01-30T17:12:36;6.07;;;1.85;;
31618;SDS011;18230;51.502;7.108;2024-01-30T17:17:37;4.43;;;2.00;;
31618;SDS011;18230;51.502;7.108;2024-01-30T17:22:38;6.03;;;1.90;;
31618;SDS011;18230;51.502;7.108;2024-01-30T17:27:41;4.53;;;1.77;;
31618;SDS011;18230;51.502;7.108;2024-01-30T17:32:41;6.53;;;1.80;;
31618;SDS011;18230;51.502;7.108;2024-01-30T17:37:42;8.50;;;1.70;;
31618;SDS011;18230;51.502;7.108;2024-01-30T17:42:43;8.25;;;2.67;;
31618;SDS011;18230;51.502;7.108;2024-01-30T17:47:44;4.50;;;2.10;;
31618;SDS011;18230;51.502;7.108;2024-01-30T17:52:45;9.18;;;3.20;;
31618;SDS011;18230;51.502;7.108;2024-01-30T17:57:46;7.82;;;3.28;;
31618;SDS011;18230;51.502;7.108;2024-01-30T18:02:46;10.65;;;3.75;;
31618;SDS011;18230;51.502;7.108;2024-01-30T18:07:47;10.55;;;3.83;;
31618;SDS011;18230;51.502;7.108;2024-01-30T18:12:48;8.48;;;3.42;;
31618;SDS011;18230;51.502;7.108;2024-01-30T18:17:51;6.82;;;2.95;;
31618;SDS011;18230;51.502;7.108;2024-01-30T18:22:52;9.23;;;2.92;;
31618;SDS011;18230;51.502;7.108;2024-01-30T18:27:52;7.60;;;3.13;;
31618;SDS011;18230;51.502;7.108;2024-01-30T18:32:53;9.18;;;2.75;;
31618;SDS011;18230;51.502;7.108;2024-01-30T18:37:54;4.35;;;2.85;;
31618;SDS011;18230;51.502;7.108;2024-01-30T18:42:54;4.25;;;2.60;;
31618;SDS011;18230;51.502;7.108;2024-01-30T18:47:55;7.53;;;3.50;;
31618;SDS011;18230;51.502;7.108;2024-01-30T18:52:56;4.63;;;2.83;;
31618;SDS011;18230;51.502;7.108;2024-01-30T18:57:56;12.35;;;4.18;;
31618;SDS011;18230;51.502;7.108;2024-01-30T19:02:57;10.63;;;3.25;;
31618;SDS011;18230;51.502;7.108;2024-01-30T19:07:58;5.05;;;3.20;;
31618;SDS011;18230;51.502;7.108;2024-01-30T19:12:59;6.30;;;3.33;;
31618;SDS011;18230;51.502;7.108;2024-01-30T19:18:00;9.13;;;4.90;;
31618;SDS011;18230;51.502;7.108;2024-01-30T19:23:01;6.20;;;3.30;;
31618;SDS011;18230;51.502;7.108;2024-01-30T19:28:02;9.63;;;3.75;;
31618;SDS011;18230;51.502;7.108;2024-01-30T19:33:03;5.88;;;3.90;;
31618;SDS011;18230;51.502;7.108;2024-01-30T19:38:04;9.75;;;4.80;;
31618;SDS011;18230;51.502;7.108;2024-01-30T19:43:05;14.65;;;6.13;;
31618;SDS011;18230;51.502;7.108;2024-01-30T19:48:05;8.95;;;5.05;;
31618;SDS011;18230;51.502;7.108;2024-01-30T19:53:06;10.93;;;5.30;;
31618;SDS011;18230;51.502;7.108;2024-01-30T19:58:07;13.60;;;6.97;;
31618;SDS011;18230;51.502;7.108;2024-01-30T20:03:08;9.38;;;6.03;;
31618;SDS011;18230;51.502;7.108;2024-01-30T20:08:08;9.80;;;6.97;;
31618;SDS011;18230;51.502;7.108;2024-01-30T20:13:09;12.50;;;7.30;;
31618;SDS011;18230;51.502;7.108;2024-01-30T20:18:09;15.63;;;7.90;;
31618;SDS011;18230;51.502;7.108;2024-01-30T20:23:10;18.10;;;8.35;;
31618;SDS011;18230;51.502;7.108;2024-01-30T20:28:11;16.85;;;8.55;;
31618;SDS011;18230;51.502;7.108;2024-01-30T20:33:12;13.18;;;8.32;;
31618;SDS011;18230;51.502;7.108;2024-01-30T20:38:15;17.05;;;9.68;;
31618;SDS011;18230;51.502;7.108;2024-01-30T20:43:16;16.40;;;9.30;;
31618;SDS011;18230;51.502;7.108;2024-01-30T20:48:17;18.70;;;10.95;;
31618;SDS011;18230;51.502;7.108;2024-01-30T20:53:20;15.18;;;10.77;;
31618;SDS011;18230;51.502;7.108;2024-01-30T20:58:20;20.20;;;10.60;;
31618;SDS011;18230;51.502;7.108;2024-01-30T21:03:21;20.08;;;11.40;;
31618;SDS011;18230;51.502;7.108;2024-01-30T21:08:22;21.85;;;11.65;;
31618;SDS011;18230;51.502;7.108;2024-01-30T21:13:23;23.92;;;13.23;;
31618;SDS011;18230;51.502;7.108;2024-01-30T21:18:23;23.02;;;13.68;;
31618;SDS011;18230;51.502;7.108;2024-01-30T21:23:24;24.02;;;14.38;;
31618;SDS011;18230;51.502;7.108;2024-01-30T21:28:25;23.95;;;13.95;;
31618;SDS011;18230;51.502;7.108;2024-01-30T21:33:25;22.70;;;15.10;;
31618;SDS011;18230;51.502;7.108;2024-01-30T21:38:26;24.30;;;14.98;;
31618;SDS011;18230;51.502;7.108;2024-01-30T21:43:27;25.88;;;16.05;;
31618;SDS011;18230;51.502;7.108;2024-01-30T21:48:28;24.27;;;16.33;;
31618;SDS011;18230;51.502;7.108;2024-01-30T21:53:29;22.30;;;15.88;;
31618;SDS011;18230;51.502;7.108;2024-01-30T21:58:30;30.05;;;16.88;;
31618;SDS011;18230;51.502;7.108;2024-01-30T22:03:31;25.73;;;16.33;;
31618;SDS011;18230;51.502;7.108;2024-01-30T22:08:31;28.05;;;17.65;;
31618;SDS011;18230;51.502;7.108;2024-01-30T22:13:32;26.00;;;17.90;;
31618;SDS011;18230;51.502;7.108;2024-01-30T22:18:33;30.38;;;19.15;;
31618;SDS011;18230;51.502;7.108;2024-01-30T22:23:33;27.92;;;18.30;;
31618;SDS011;18230;51.502;7.108;2024-01-30T22:28:34;29.15;;;19.38;;
31618;SDS011;18230;51.502;7.108;2024-01-30T22:33:35;32.60;;;18.02;;
31618;SDS011;18230;51.502;7.108;2024-01-30T22:38:37;27.13;;;18.83;;
31618;SDS011;18230;51.502;7.108;2024-01-30T22:43:37;28.50;;;19.10;;
31618;SDS011;18230;51.502;7.108;2024-01-30T22:48:41;34.90;;;21.88;;
31618;SDS011;18230;51.502;7.108;2024-01-30T22:53:44;41.55;;;22.00;;
31618;SDS011;18230;51.502;7.108;2024-01-30T22:58:47;33.95;;;22.23;;
31618;SDS011;18230;51.502;7.108;2024-01-30T23:03:48;40.28;;;23.50;;
31618;SDS011;18230;51.502;7.108;2024-01-30T23:08:48;38.50;;;24.33;;
31618;SDS011;18230;51.502;7.108;2024-01-30T23:13:49;21.65;;;12.98;;
31618;SDS011;18230;51.502;7.108;2024-01-30T23:18:50;25.45;;;12.07;;
31618;SDS011;18230;51.502;7.108;2024-01-30T23:23:50;20.00;;;11.13;;
31618;SDS011;18230;51.502;7.108;2024-01-30T23:28:51;20.35;;;9.90;;
31618;SDS011;18230;51.502;7.108;2024-01-30T23:33:52;17.13;;;8.73;;
31618;SDS011;18230;51.502;7.108;2024-01-30T23:38:52;15.88;;;6.72;;
31618;SDS011;18230;51.502;7.108;2024-01-30T23:43:53;19.52;;;6.40;;
31618;SDS011;18230;51.502;7.108;2024-01-30T23:48:53;22.10;;;5.72;;
31618;SDS011;18230;51.502;7.108;2024-01-30T23:53:54;18.83;;;5.78;;
31618;SDS011;18230;51.502;7.108;2024-01-30T23:58:55;16.15;;;5.30;;
